sensor_id;sensor_type;location;lat;lon;timestamp;temperature;humidity
66582;SHT31;53438;48.898;2.308;2022-09-12T03:08:28;17.76;74.05
66582;SHT31;53438;48.898;2.308;2022-09-12T03:19:28;17.79;74.08
66582;SHT31;53438;48.898;2.308;2022-09-12T03:22:16;17.80;73.93
66582;SHT31;53438;48.898;2.308;2022-09-12T03:25:15;17.72;73.99
66582;SHT31;53438;48.898;2.308;2022-09-12T03:27:52;17.72;73.99
66582;SHT31;53438;48.898;2.308;2022-09-12T03:30:20;17.70;74.14
66582;SHT31;53438;48.898;2.308;2022-09-12T03:32:50;17.55;74.55
66582;SHT31;53438;48.898;2.308;2022-09-12T03:35:19;17.59;74.23
66582;SHT31;53438;48.898;2.308;2022-09-12T03:37:46;17.48;74.62
66582;SHT31;53438;48.898;2.308;2022-09-12T03:40:12;17.29;75.18
66582;SHT31;53438;48.898;2.308;2022-09-12T03:42:38;17.25;75.22
66582;SHT31;53438;48.898;2.308;2022-09-12T03:45:04;17.17;75.16
66582;SHT31;53438;48.898;2.308;2022-09-12T03:47:30;17.22;75.33
66582;SHT31;53438;48.898;2.308;2022-09-12T03:49:55;17.27;75.10
66582;SHT31;53438;48.898;2.308;2022-09-12T03:52:21;17.17;75.41
66582;SHT31;53438;48.898;2.308;2022-09-12T03:54:47;17.28;75.03
66582;SHT31;53438;48.898;2.308;2022-09-12T03:57:12;17.17;75.52
66582;SHT31;53438;48.898;2.308;2022-09-12T03:59:37;17.11;75.59
66582;SHT31;53438;48.898;2.308;2022-09-12T04:02:03;17.06;75.73
66582;SHT31;53438;48.898;2.308;2022-09-12T04:04:29;17.14;75.50
66582;SHT31;53438;48.898;2.308;2022-09-12T04:06:55;17.14;75.57
66582;SHT31;53438;48.898;2.308;2022-09-12T04:09:21;16.95;75.86
66582;SHT31;53438;48.898;2.308;2022-09-12T04:11:47;17.07;75.79
66582;SHT31;53438;48.898;2.308;2022-09-12T04:14:12;16.95;75.89
66582;SHT31;53438;48.898;2.308;2022-09-12T04:16:37;17.04;75.94
66582;SHT31;53438;48.898;2.308;2022-09-12T04:19:03;17.01;75.79
66582;SHT31;53438;48.898;2.308;2022-09-12T04:21:29;17.14;75.50
66582;SHT31;53438;48.898;2.308;2022-09-12T04:23:55;17.15;75.41
66582;SHT31;53438;48.898;2.308;2022-09-12T04:26:20;17.24;75.24
66582;SHT31;53438;48.898;2.308;2022-09-12T04:28:46;17.17;75.39
66582;SHT31;53438;48.898;2.308;2022-09-12T04:31:15;17.17;75.43
66582;SHT31;53438;48.898;2.308;2022-09-12T04:33:52;17.21;75.32
66582;SHT31;53438;48.898;2.308;2022-09-12T04:36:18;17.29;74.96
66582;SHT31;53438;48.898;2.308;2022-09-12T04:38:45;17.38;74.68
66582;SHT31;53438;48.898;2.308;2022-09-12T04:41:21;17.28;74.94
66582;SHT31;53438;48.898;2.308;2022-09-12T04:43:51;17.24;75.05
66582;SHT31;53438;48.898;2.308;2022-09-12T04:46:17;17.20;75.25
66582;SHT31;53438;48.898;2.308;2022-09-12T04:48:44;17.34;74.91
66582;SHT31;53438;48.898;2.308;2022-09-12T04:51:12;17.38;74.53
66582;SHT31;53438;48.898;2.308;2022-09-12T04:53:38;17.43;74.38
66582;SHT31;53438;48.898;2.308;2022-09-12T04:56:06;17.45;74.42
66582;SHT31;53438;48.898;2.308;2022-09-12T04:58:32;17.27;74.85
66582;SHT31;53438;48.898;2.308;2022-09-12T05:01:09;17.31;74.69
66582;SHT31;53438;48.898;2.308;2022-09-12T05:03:36;17.29;74.78
66582;SHT31;53438;48.898;2.308;2022-09-12T05:06:04;17.27;74.74
66582;SHT31;53438;48.898;2.308;2022-09-12T05:08:30;17.21;74.86
66582;SHT31;53438;48.898;2.308;2022-09-12T05:10:55;17.17;74.90
66582;SHT31;53438;48.898;2.308;2022-09-12T05:13:21;17.17;75.24
66582;SHT31;53438;48.898;2.308;2022-09-12T05:15:53;17.20;75.20
66582;SHT31;53438;48.898;2.308;2022-09-12T05:18:19;17.10;75.52
66582;SHT31;53438;48.898;2.308;2022-09-12T05:20:45;17.10;75.49
66582;SHT31;53438;48.898;2.308;2022-09-12T05:23:10;17.22;75.16
66582;SHT31;53438;48.898;2.308;2022-09-12T05:25:36;17.18;75.20
66582;SHT31;53438;48.898;2.308;2022-09-12T05:28:01;17.31;74.83
66582;SHT31;53438;48.898;2.308;2022-09-12T05:30:27;17.29;74.88
66582;SHT31;53438;48.898;2.308;2022-09-12T05:32:52;17.31;74.85
66582;SHT31;53438;48.898;2.308;2022-09-12T05:35:17;17.24;75.11
66582;SHT31;53438;48.898;2.308;2022-09-12T05:37:43;17.25;75.17
66582;SHT31;53438;48.898;2.308;2022-09-12T05:40:08;17.36;74.58
66582;SHT31;53438;48.898;2.308;2022-09-12T05:42:34;17.28;74.73
66582;SHT31;53438;48.898;2.308;2022-09-12T05:45:00;17.35;74.63
66582;SHT31;53438;48.898;2.308;2022-09-12T05:47:25;17.27;74.76
66582;SHT31;53438;48.898;2.308;2022-09-12T05:49:51;17.22;74.97
66582;SHT31;53438;48.898;2.308;2022-09-12T05:52:16;17.21;75.03
66582;SHT31;53438;48.898;2.308;2022-09-12T05:54:41;17.25;74.98
66582;SHT31;53438;48.898;2.308;2022-09-12T05:57:07;17.22;74.83
66582;SHT31;53438;48.898;2.308;2022-09-12T05:59:33;17.36;74.48
66582;SHT31;53438;48.898;2.308;2022-09-12T06:01:58;17.46;74.34
66582;SHT31;53438;48.898;2.308;2022-09-12T06:04:24;17.35;74.48
66582;SHT31;53438;48.898;2.308;2022-09-12T06:06:51;17.32;74.39
66582;SHT31;53438;48.898;2.308;2022-09-12T06:09:16;17.17;74.99
66582;SHT31;53438;48.898;2.308;2022-09-12T06:11:43;17.15;74.94
66582;SHT31;53438;48.898;2.308;2022-09-12T06:14:10;17.22;74.91
66582;SHT31;53438;48.898;2.308;2022-09-12T06:16:36;17.22;74.91
66582;SHT31;53438;48.898;2.308;2022-09-12T06:19:10;17.35;74.66
66582;SHT31;53438;48.898;2.308;2022-09-12T06:21:36;17.43;74.44
66582;SHT31;53438;48.898;2.308;2022-09-12T06:24:03;17.48;74.15
66582;SHT31;53438;48.898;2.308;2022-09-12T06:26:28;17.49;74.19
66582;SHT31;53438;48.898;2.308;2022-09-12T06:28:56;17.62;73.86
66582;SHT31;53438;48.898;2.308;2022-09-12T06:31:24;17.48;73.85
66582;SHT31;53438;48.898;2.308;2022-09-12T06:33:51;17.65;73.44
66582;SHT31;53438;48.898;2.308;2022-09-12T06:36:19;17.70;73.30
66582;SHT31;53438;48.898;2.308;2022-09-12T06:38:46;17.76;73.29
66582;SHT31;53438;48.898;2.308;2022-09-12T06:41:13;17.66;73.35
66582;SHT31;53438;48.898;2.308;2022-09-12T06:43:40;17.63;73.64
66582;SHT31;53438;48.898;2.308;2022-09-12T06:46:06;17.61;73.55
66582;SHT31;53438;48.898;2.308;2022-09-12T06:48:32;17.59;73.67
66582;SHT31;53438;48.898;2.308;2022-09-12T06:51:03;17.58;73.83
66582;SHT31;53438;48.898;2.308;2022-09-12T06:53:29;17.58;73.58
66582;SHT31;53438;48.898;2.308;2022-09-12T06:55:59;17.43;73.92
66582;SHT31;53438;48.898;2.308;2022-09-12T06:58:27;17.66;73.61
66582;SHT31;53438;48.898;2.308;2022-09-12T07:01:06;17.68;73.48
66582;SHT31;53438;48.898;2.308;2022-09-12T07:03:33;17.75;73.45
66582;SHT31;53438;48.898;2.308;2022-09-12T07:06:07;17.72;73.46
66582;SHT31;53438;48.898;2.308;2022-09-12T07:08:33;17.73;73.48
66582;SHT31;53438;48.898;2.308;2022-09-12T07:13:36;17.91;72.86
66582;SHT31;53438;48.898;2.308;2022-09-12T07:16:03;17.97;72.74
66582;SHT31;53438;48.898;2.308;2022-09-12T07:18:29;18.01;72.54
66582;SHT31;53438;48.898;2.308;2022-09-12T07:20:55;18.10;72.54
66582;SHT31;53438;48.898;2.308;2022-09-12T07:23:20;18.28;71.97
66582;SHT31;53438;48.898;2.308;2022-09-12T07:25:56;18.27;71.89
66582;SHT31;53438;48.898;2.308;2022-09-12T07:28:26;18.26;72.03
66582;SHT31;53438;48.898;2.308;2022-09-12T07:30:52;18.34;71.95
66582;SHT31;53438;48.898;2.308;2022-09-12T07:33:22;18.48;71.61
66582;SHT31;53438;48.898;2.308;2022-09-12T07:35:48;18.57;71.48
66582;SHT31;53438;48.898;2.308;2022-09-12T07:38:16;18.68;71.10
66582;SHT31;53438;48.898;2.308;2022-09-12T07:40:42;18.85;70.72
66582;SHT31;53438;48.898;2.308;2022-09-12T07:43:08;18.98;70.30
66582;SHT31;53438;48.898;2.308;2022-09-12T07:45:33;19.06;70.02
66582;SHT31;53438;48.898;2.308;2022-09-12T07:47:58;19.09;69.99
66582;SHT31;53438;48.898;2.308;2022-09-12T07:50:24;18.88;70.28
66582;SHT31;53438;48.898;2.308;2022-09-12T07:52:49;18.88;70.34
66582;SHT31;53438;48.898;2.308;2022-09-12T07:55:15;19.03;70.14
66582;SHT31;53438;48.898;2.308;2022-09-12T07:57:41;19.24;68.80
66582;SHT31;53438;48.898;2.308;2022-09-12T08:00:06;19.45;67.66
66582;SHT31;53438;48.898;2.308;2022-09-12T08:02:32;19.61;67.04
66582;SHT31;53438;48.898;2.308;2022-09-12T08:04:58;19.85;66.51
66582;SHT31;53438;48.898;2.308;2022-09-12T08:07:23;19.98;66.17
66582;SHT31;53438;48.898;2.308;2022-09-12T08:09:48;20.14;65.62
66582;SHT31;53438;48.898;2.308;2022-09-12T08:12:15;20.36;65.14
66582;SHT31;53438;48.898;2.308;2022-09-12T08:14:40;20.46;64.44
66582;SHT31;53438;48.898;2.308;2022-09-12T08:17:06;20.57;64.07
66582;SHT31;53438;48.898;2.308;2022-09-12T08:19:31;20.59;63.95
66582;SHT31;53438;48.898;2.308;2022-09-12T08:21:56;20.62;63.84
66582;SHT31;53438;48.898;2.308;2022-09-12T08:24:22;20.77;63.24
66582;SHT31;53438;48.898;2.308;2022-09-12T08:26:47;20.80;62.99
66582;SHT31;53438;48.898;2.308;2022-09-12T08:29:12;20.86;62.93
66582;SHT31;53438;48.898;2.308;2022-09-12T08:31:38;21.03;62.58
66582;SHT31;53438;48.898;2.308;2022-09-12T08:34:05;21.04;62.54
66582;SHT31;53438;48.898;2.308;2022-09-12T08:36:31;21.10;62.40
66582;SHT31;53438;48.898;2.308;2022-09-12T08:38:59;21.10;62.04
66582;SHT31;53438;48.898;2.308;2022-09-12T08:41:43;21.03;62.46
66582;SHT31;53438;48.898;2.308;2022-09-12T08:49:38;21.05;62.22
66582;SHT31;53438;48.898;2.308;2022-09-12T08:52:12;21.17;62.11
66582;SHT31;53438;48.898;2.308;2022-09-12T08:54:38;21.30;62.03
66582;SHT31;53438;48.898;2.308;2022-09-12T08:57:08;21.42;61.13
66582;SHT31;53438;48.898;2.308;2022-09-12T08:59:37;21.65;60.57
66582;SHT31;53438;48.898;2.308;2022-09-12T09:02:19;21.67;60.04
66582;SHT31;53438;48.898;2.308;2022-09-12T09:04:50;21.69;60.35
66582;SHT31;53438;48.898;2.308;2022-09-12T09:07:24;21.72;60.38
66582;SHT31;53438;48.898;2.308;2022-09-12T09:10:15;21.92;59.56
66582;SHT31;53438;48.898;2.308;2022-09-12T09:20:43;22.13;60.59
66582;SHT31;53438;48.898;2.308;2022-09-12T09:25:50;22.16;59.57
66582;SHT31;53438;48.898;2.308;2022-09-12T09:28:24;22.23;59.12
66582;SHT31;53438;48.898;2.308;2022-09-12T09:30:54;22.29;59.72
66582;SHT31;53438;48.898;2.308;2022-09-12T09:33:25;22.45;59.33
66582;SHT31;53438;48.898;2.308;2022-09-12T09:44:11;22.64;58.36
66582;SHT31;53438;48.898;2.308;2022-09-12T09:46:37;22.84;57.59
66582;SHT31;53438;48.898;2.308;2022-09-12T09:49:03;22.82;57.65
66582;SHT31;53438;48.898;2.308;2022-09-12T09:51:35;22.90;57.04
66582;SHT31;53438;48.898;2.308;2022-09-12T09:56:38;23.01;56.82
66582;SHT31;53438;48.898;2.308;2022-09-12T09:59:08;23.02;56.57
66582;SHT31;53438;48.898;2.308;2022-09-12T10:01:34;23.06;56.91
66582;SHT31;53438;48.898;2.308;2022-09-12T10:03:59;23.18;56.15
66582;SHT31;53438;48.898;2.308;2022-09-12T10:06:29;23.16;56.32
66582;SHT31;53438;48.898;2.308;2022-09-12T10:11:37;23.33;55.66
66582;SHT31;53438;48.898;2.308;2022-09-12T10:14:03;23.43;55.53
66582;SHT31;53438;48.898;2.308;2022-09-12T10:16:31;23.63;55.12
66582;SHT31;53438;48.898;2.308;2022-09-12T10:18:59;23.52;54.95
66582;SHT31;53438;48.898;2.308;2022-09-12T10:21:34;23.57;54.34
66582;SHT31;53438;48.898;2.308;2022-09-12T10:24:33;23.63;53.59
66582;SHT31;53438;48.898;2.308;2022-09-12T10:32:30;23.73;53.92
66582;SHT31;53438;48.898;2.308;2022-09-12T10:35:03;23.80;53.36
66582;SHT31;53438;48.898;2.308;2022-09-12T10:37:34;23.81;53.56
66582;SHT31;53438;48.898;2.308;2022-09-12T10:40:01;24.02;52.10
66582;SHT31;53438;48.898;2.308;2022-09-12T10:42:51;23.98;51.55
66582;SHT31;53438;48.898;2.308;2022-09-12T10:45:31;24.10;50.31
66582;SHT31;53438;48.898;2.308;2022-09-12T10:47:59;24.10;50.76
66582;SHT31;53438;48.898;2.308;2022-09-12T10:50:30;24.02;50.84
66582;SHT31;53438;48.898;2.308;2022-09-12T10:53:18;23.97;51.46
66582;SHT31;53438;48.898;2.308;2022-09-12T10:59:02;24.22;51.03
66582;SHT31;53438;48.898;2.308;2022-09-12T11:07:13;24.17;51.80
66582;SHT31;53438;48.898;2.308;2022-09-12T11:23:20;24.63;50.88
66582;SHT31;53438;48.898;2.308;2022-09-12T11:28:52;24.59;50.27
66582;SHT31;53438;48.898;2.308;2022-09-12T11:37:39;24.79;49.51
66582;SHT31;53438;48.898;2.308;2022-09-12T11:42:48;25.17;47.91
66582;SHT31;53438;48.898;2.308;2022-09-12T11:45:24;25.23;47.83
66582;SHT31;53438;48.898;2.308;2022-09-12T11:47:54;25.34;46.96
66582;SHT31;53438;48.898;2.308;2022-09-12T11:50:26;25.41;47.19
66582;SHT31;53438;48.898;2.308;2022-09-12T11:52:54;25.41;46.76
66582;SHT31;53438;48.898;2.308;2022-09-12T11:55:24;25.42;47.01
66582;SHT31;53438;48.898;2.308;2022-09-12T11:57:53;25.52;46.31
66582;SHT31;53438;48.898;2.308;2022-09-12T12:03:12;25.74;46.04
66582;SHT31;53438;48.898;2.308;2022-09-12T12:08:12;25.92;45.00
66582;SHT31;53438;48.898;2.308;2022-09-12T12:10:46;25.95;44.49
66582;SHT31;53438;48.898;2.308;2022-09-12T12:13:16;25.86;45.13
66582;SHT31;53438;48.898;2.308;2022-09-12T12:15:47;25.93;44.96
66582;SHT31;53438;48.898;2.308;2022-09-12T12:18:17;25.89;45.65
66582;SHT31;53438;48.898;2.308;2022-09-12T12:20:43;25.92;45.73
66582;SHT31;53438;48.898;2.308;2022-09-12T12:23:29;25.96;45.08
66582;SHT31;53438;48.898;2.308;2022-09-12T12:25:57;25.96;44.94
66582;SHT31;53438;48.898;2.308;2022-09-12T12:28:56;26.15;44.86
66582;SHT31;53438;48.898;2.308;2022-09-12T12:31:22;26.16;45.29
66582;SHT31;53438;48.898;2.308;2022-09-12T12:36:34;26.25;45.55
66582;SHT31;53438;48.898;2.308;2022-09-12T12:44:55;26.41;44.14
66582;SHT31;53438;48.898;2.308;2022-09-12T12:47:23;26.47;43.90
66582;SHT31;53438;48.898;2.308;2022-09-12T12:49:52;26.60;44.03
66582;SHT31;53438;48.898;2.308;2022-09-12T12:52:20;26.60;43.49
66582;SHT31;53438;48.898;2.308;2022-09-12T12:57:30;26.57;44.08
66582;SHT31;53438;48.898;2.308;2022-09-12T13:00:00;26.60;44.30
66582;SHT31;53438;48.898;2.308;2022-09-12T13:04:54;26.61;44.70
66582;SHT31;53438;48.898;2.308;2022-09-12T13:07:26;26.76;43.49
66582;SHT31;53438;48.898;2.308;2022-09-12T13:09:53;26.71;43.42
66582;SHT31;53438;48.898;2.308;2022-09-12T13:12:34;26.74;43.14
66582;SHT31;53438;48.898;2.308;2022-09-12T13:15:02;26.71;45.21
66582;SHT31;53438;48.898;2.308;2022-09-12T13:17:37;26.61;43.71
66582;SHT31;53438;48.898;2.308;2022-09-12T13:22:46;26.57;44.07
66582;SHT31;53438;48.898;2.308;2022-09-12T13:28:15;26.78;43.32
66582;SHT31;53438;48.898;2.308;2022-09-12T13:30:45;26.77;43.38
66582;SHT31;53438;48.898;2.308;2022-09-12T13:33:19;26.70;43.53
66582;SHT31;53438;48.898;2.308;2022-09-12T13:44:00;26.74;44.03
66582;SHT31;53438;48.898;2.308;2022-09-12T13:46:30;26.86;43.01
66582;SHT31;53438;48.898;2.308;2022-09-12T13:49:05;26.86;43.29
66582;SHT31;53438;48.898;2.308;2022-09-12T13:51:31;26.78;43.23
66582;SHT31;53438;48.898;2.308;2022-09-12T13:54:01;26.80;43.32
66582;SHT31;53438;48.898;2.308;2022-09-12T13:56:27;26.70;43.81
66582;SHT31;53438;48.898;2.308;2022-09-12T13:58:57;26.74;43.06
66582;SHT31;53438;48.898;2.308;2022-09-12T14:01:34;26.67;43.28
66582;SHT31;53438;48.898;2.308;2022-09-12T14:04:20;26.64;44.03
66582;SHT31;53438;48.898;2.308;2022-09-12T14:07:24;26.64;42.90
66582;SHT31;53438;48.898;2.308;2022-09-12T14:09:55;26.67;42.88
66582;SHT31;53438;48.898;2.308;2022-09-12T14:12:30;26.63;43.77
66582;SHT31;53438;48.898;2.308;2022-09-12T14:14:56;26.74;43.91
66582;SHT31;53438;48.898;2.308;2022-09-12T14:19:48;26.54;43.16
66582;SHT31;53438;48.898;2.308;2022-09-12T14:22:14;26.46;43.52
66582;SHT31;53438;48.898;2.308;2022-09-12T14:24:45;26.49;43.72
66582;SHT31;53438;48.898;2.308;2022-09-12T14:27:21;26.53;42.80
66582;SHT31;53438;48.898;2.308;2022-09-12T14:29:49;26.70;41.75
66582;SHT31;53438;48.898;2.308;2022-09-12T14:32:24;26.70;40.85
66582;SHT31;53438;48.898;2.308;2022-09-12T14:37:37;26.64;40.99
66582;SHT31;53438;48.898;2.308;2022-09-12T14:40:15;26.68;40.95
66582;SHT31;53438;48.898;2.308;2022-09-12T14:42:41;26.67;41.36
66582;SHT31;53438;48.898;2.308;2022-09-12T14:45:16;26.80;41.33
66582;SHT31;53438;48.898;2.308;2022-09-12T14:47:47;26.92;40.55
66582;SHT31;53438;48.898;2.308;2022-09-12T14:50:18;26.99;39.61
66582;SHT31;53438;48.898;2.308;2022-09-12T14:53:05;27.07;40.66
66582;SHT31;53438;48.898;2.308;2022-09-12T14:55:33;27.07;41.44
66582;SHT31;53438;48.898;2.308;2022-09-12T14:58:28;27.16;40.85
66582;SHT31;53438;48.898;2.308;2022-09-12T15:03:36;27.15;41.27
66582;SHT31;53438;48.898;2.308;2022-09-12T15:06:03;27.29;41.42
66582;SHT31;53438;48.898;2.308;2022-09-12T15:08:30;27.38;41.44
66582;SHT31;53438;48.898;2.308;2022-09-12T15:10:56;27.38;40.78
66582;SHT31;53438;48.898;2.308;2022-09-12T15:13:25;27.41;40.02
66582;SHT31;53438;48.898;2.308;2022-09-12T15:15:55;27.42;39.05
66582;SHT31;53438;48.898;2.308;2022-09-12T15:18:23;27.42;39.26
66582;SHT31;53438;48.898;2.308;2022-09-12T15:20:52;27.49;39.63
66582;SHT31;53438;48.898;2.308;2022-09-12T15:23:29;27.50;39.74
66582;SHT31;53438;48.898;2.308;2022-09-12T15:25:55;27.53;39.35
66582;SHT31;53438;48.898;2.308;2022-09-12T15:28:23;27.57;39.39
66582;SHT31;53438;48.898;2.308;2022-09-12T15:30:51;27.50;39.50
66582;SHT31;53438;48.898;2.308;2022-09-12T15:33:18;27.53;39.88
66582;SHT31;53438;48.898;2.308;2022-09-12T15:35:44;27.52;39.77
66582;SHT31;53438;48.898;2.308;2022-09-12T15:38:09;27.46;40.17
66582;SHT31;53438;48.898;2.308;2022-09-12T15:40:34;27.45;40.30
66582;SHT31;53438;48.898;2.308;2022-09-12T15:43:00;27.45;40.25
66582;SHT31;53438;48.898;2.308;2022-09-12T15:45:28;27.36;40.05
66582;SHT31;53438;48.898;2.308;2022-09-12T15:47:54;27.25;40.71
66582;SHT31;53438;48.898;2.308;2022-09-12T15:50:19;27.12;41.14
66582;SHT31;53438;48.898;2.308;2022-09-12T15:52:45;27.08;40.20
66582;SHT31;53438;48.898;2.308;2022-09-12T15:55:17;27.09;40.15
66582;SHT31;53438;48.898;2.308;2022-09-12T15:57:43;27.15;40.18
66582;SHT31;53438;48.898;2.308;2022-09-12T16:00:10;27.11;40.46
66582;SHT31;53438;48.898;2.308;2022-09-12T16:02:35;27.01;40.90
66582;SHT31;53438;48.898;2.308;2022-09-12T16:05:01;27.12;40.40
66582;SHT31;53438;48.898;2.308;2022-09-12T16:07:26;27.05;40.80
66582;SHT31;53438;48.898;2.308;2022-09-12T16:09:52;27.04;40.83
66582;SHT31;53438;48.898;2.308;2022-09-12T16:12:17;26.90;41.43
66582;SHT31;53438;48.898;2.308;2022-09-12T16:14:42;26.99;41.38
66582;SHT31;53438;48.898;2.308;2022-09-12T16:17:09;27.02;41.33
66582;SHT31;53438;48.898;2.308;2022-09-12T16:19:34;26.88;42.07
66582;SHT31;53438;48.898;2.308;2022-09-12T16:21:59;26.91;41.99
66582;SHT31;53438;48.898;2.308;2022-09-12T16:24:25;26.90;41.51
66582;SHT31;53438;48.898;2.308;2022-09-12T16:26:50;26.95;41.66
66582;SHT31;53438;48.898;2.308;2022-09-12T16:29:16;26.97;41.54
66582;SHT31;53438;48.898;2.308;2022-09-12T16:31:41;26.88;42.15
66582;SHT31;53438;48.898;2.308;2022-09-12T16:34:06;26.81;42.39
66582;SHT31;53438;48.898;2.308;2022-09-12T16:36:32;26.87;42.20
66582;SHT31;53438;48.898;2.308;2022-09-12T16:38:57;26.87;42.34
66582;SHT31;53438;48.898;2.308;2022-09-12T16:41:23;26.81;42.46
66582;SHT31;53438;48.898;2.308;2022-09-12T16:43:49;26.84;42.94
66582;SHT31;53438;48.898;2.308;2022-09-12T16:46:23;26.74;43.35
66582;SHT31;53438;48.898;2.308;2022-09-12T16:48:51;26.73;43.37
66582;SHT31;53438;48.898;2.308;2022-09-12T16:51:19;26.71;43.31
66582;SHT31;53438;48.898;2.308;2022-09-12T16:53:45;26.68;43.49
66582;SHT31;53438;48.898;2.308;2022-09-12T16:56:12;26.63;43.55
66582;SHT31;53438;48.898;2.308;2022-09-12T16:58:39;26.58;43.94
66582;SHT31;53438;48.898;2.308;2022-09-12T17:01:11;26.46;44.04
66582;SHT31;53438;48.898;2.308;2022-09-12T17:03:37;26.57;44.08
66582;SHT31;53438;48.898;2.308;2022-09-12T17:06:06;26.70;43.71
66582;SHT31;53438;48.898;2.308;2022-09-12T17:08:33;26.53;44.24
66582;SHT31;53438;48.898;2.308;2022-09-12T17:11:00;26.51;44.60
66582;SHT31;53438;48.898;2.308;2022-09-12T17:13:26;26.41;44.55
66582;SHT31;53438;48.898;2.308;2022-09-12T17:15:52;26.44;44.21
66582;SHT31;53438;48.898;2.308;2022-09-12T17:18:17;26.49;43.66
66582;SHT31;53438;48.898;2.308;2022-09-12T17:20:43;26.46;43.04
66582;SHT31;53438;48.898;2.308;2022-09-12T17:23:08;26.41;43.04
66582;SHT31;53438;48.898;2.308;2022-09-12T17:25:34;26.41;43.05
66582;SHT31;53438;48.898;2.308;2022-09-12T17:27:59;26.47;43.38
66582;SHT31;53438;48.898;2.308;2022-09-12T17:30:25;26.37;43.44
66582;SHT31;53438;48.898;2.308;2022-09-12T17:32:50;26.40;43.50
66582;SHT31;53438;48.898;2.308;2022-09-12T17:35:16;26.35;43.55
66582;SHT31;53438;48.898;2.308;2022-09-12T17:37:41;26.19;44.12
66582;SHT31;53438;48.898;2.308;2022-09-12T17:40:07;26.19;44.33
66582;SHT31;53438;48.898;2.308;2022-09-12T17:42:33;26.23;44.24
66582;SHT31;53438;48.898;2.308;2022-09-12T17:44:59;26.32;44.21
66582;SHT31;53438;48.898;2.308;2022-09-12T17:47:25;26.19;44.41
66582;SHT31;53438;48.898;2.308;2022-09-12T17:49:51;26.08;44.81
66582;SHT31;53438;48.898;2.308;2022-09-12T17:52:18;26.06;44.78
66582;SHT31;53438;48.898;2.308;2022-09-12T17:54:43;26.09;45.10
66582;SHT31;53438;48.898;2.308;2022-09-12T17:57:09;26.10;44.76
66582;SHT31;53438;48.898;2.308;2022-09-12T17:59:35;26.05;45.19
66582;SHT31;53438;48.898;2.308;2022-09-12T18:02:00;25.99;45.20
66582;SHT31;53438;48.898;2.308;2022-09-12T18:04:42;25.89;45.55
66582;SHT31;53438;48.898;2.308;2022-09-12T18:07:13;25.85;45.69
66582;SHT31;53438;48.898;2.308;2022-09-12T18:09:39;25.85;45.71
66582;SHT31;53438;48.898;2.308;2022-09-12T18:12:06;25.79;46.09
66582;SHT31;53438;48.898;2.308;2022-09-12T18:14:31;25.85;45.97
66582;SHT31;53438;48.898;2.308;2022-09-12T18:16:57;25.77;46.34
66582;SHT31;53438;48.898;2.308;2022-09-12T18:19:24;25.71;46.58
66582;SHT31;53438;48.898;2.308;2022-09-12T18:21:51;25.62;46.85
66582;SHT31;53438;48.898;2.308;2022-09-12T18:24:17;25.69;46.84
66582;SHT31;53438;48.898;2.308;2022-09-12T18:26:42;25.57;47.20
66582;SHT31;53438;48.898;2.308;2022-09-12T18:29:08;25.57;47.34
66582;SHT31;53438;48.898;2.308;2022-09-12T18:31:34;25.57;47.33
66582;SHT31;53438;48.898;2.308;2022-09-12T18:34:00;25.51;47.53
66582;SHT31;53438;48.898;2.308;2022-09-12T18:36:27;25.50;47.61
66582;SHT31;53438;48.898;2.308;2022-09-12T18:38:53;25.54;47.71
66582;SHT31;53438;48.898;2.308;2022-09-12T18:41:23;25.48;47.98
66582;SHT31;53438;48.898;2.308;2022-09-12T18:43:55;25.54;47.75
66582;SHT31;53438;48.898;2.308;2022-09-12T18:46:21;25.58;47.85
66582;SHT31;53438;48.898;2.308;2022-09-12T18:48:47;25.57;48.00
66582;SHT31;53438;48.898;2.308;2022-09-12T18:51:17;25.40;48.30
66582;SHT31;53438;48.898;2.308;2022-09-12T18:53:52;25.31;48.66
66582;SHT31;53438;48.898;2.308;2022-09-12T18:56:18;25.28;48.85
66582;SHT31;53438;48.898;2.308;2022-09-12T18:58:49;25.23;49.09
66582;SHT31;53438;48.898;2.308;2022-09-12T19:01:17;25.23;49.40
66582;SHT31;53438;48.898;2.308;2022-09-12T19:03:43;25.40;49.15
66582;SHT31;53438;48.898;2.308;2022-09-12T19:06:11;25.34;49.46
66582;SHT31;53438;48.898;2.308;2022-09-12T19:08:38;25.35;49.65
66582;SHT31;53438;48.898;2.308;2022-09-12T19:11:04;25.31;50.05
66582;SHT31;53438;48.898;2.308;2022-09-12T19:13:29;25.14;50.61
66582;SHT31;53438;48.898;2.308;2022-09-12T19:15:58;25.24;50.46
66582;SHT31;53438;48.898;2.308;2022-09-12T19:18:23;25.26;50.47
66582;SHT31;53438;48.898;2.308;2022-09-12T19:20:52;25.03;51.02
66582;SHT31;53438;48.898;2.308;2022-09-12T19:23:17;25.11;51.02
66582;SHT31;53438;48.898;2.308;2022-09-12T19:25:43;25.13;51.17
66582;SHT31;53438;48.898;2.308;2022-09-12T19:28:10;25.02;51.47
66582;SHT31;53438;48.898;2.308;2022-09-12T19:30:35;24.84;51.92
66582;SHT31;53438;48.898;2.308;2022-09-12T19:33:01;24.93;51.79
66582;SHT31;53438;48.898;2.308;2022-09-12T19:35:27;24.86;51.91
66582;SHT31;53438;48.898;2.308;2022-09-12T19:37:52;24.82;52.09
66582;SHT31;53438;48.898;2.308;2022-09-12T19:40:18;24.83;52.14
66582;SHT31;53438;48.898;2.308;2022-09-12T19:42:43;24.87;52.18
66582;SHT31;53438;48.898;2.308;2022-09-12T19:45:09;24.79;52.32
66582;SHT31;53438;48.898;2.308;2022-09-12T19:47:34;24.80;52.19
66582;SHT31;53438;48.898;2.308;2022-09-12T19:49:59;24.83;52.33
66582;SHT31;53438;48.898;2.308;2022-09-12T19:52:25;24.68;52.42
66582;SHT31;53438;48.898;2.308;2022-09-12T19:54:50;24.69;52.44
66582;SHT31;53438;48.898;2.308;2022-09-12T19:57:15;24.73;52.42
66582;SHT31;53438;48.898;2.308;2022-09-12T19:59:41;24.65;52.77
66582;SHT31;53438;48.898;2.308;2022-09-12T20:02:07;24.73;52.26
66582;SHT31;53438;48.898;2.308;2022-09-12T20:04:32;24.79;52.19
66582;SHT31;53438;48.898;2.308;2022-09-12T20:06:58;24.63;52.60
66582;SHT31;53438;48.898;2.308;2022-09-12T20:09:23;24.66;52.43
66582;SHT31;53438;48.898;2.308;2022-09-12T20:11:49;24.56;52.69
66582;SHT31;53438;48.898;2.308;2022-09-12T20:14:14;24.51;52.42
66582;SHT31;53438;48.898;2.308;2022-09-12T20:16:39;24.47;52.52
66582;SHT31;53438;48.898;2.308;2022-09-12T20:19:05;24.42;52.62
66582;SHT31;53438;48.898;2.308;2022-09-12T20:21:33;24.33;52.91
66582;SHT31;53438;48.898;2.308;2022-09-12T20:24:11;24.36;52.66
66582;SHT31;53438;48.898;2.308;2022-09-12T20:26:37;24.43;52.61
66582;SHT31;53438;48.898;2.308;2022-09-12T20:29:03;24.42;52.60
66582;SHT31;53438;48.898;2.308;2022-09-12T20:31:29;24.35;52.97
66582;SHT31;53438;48.898;2.308;2022-09-12T20:33:55;24.33;53.04
66582;SHT31;53438;48.898;2.308;2022-09-12T20:36:20;24.32;52.82
66582;SHT31;53438;48.898;2.308;2022-09-12T20:38:54;24.29;52.83
66582;SHT31;53438;48.898;2.308;2022-09-12T20:41:21;24.22;53.15
66582;SHT31;53438;48.898;2.308;2022-09-12T20:43:54;24.18;53.27
66582;SHT31;53438;48.898;2.308;2022-09-12T20:46:20;24.12;53.42